sensor_id;sensor_type;location;lat;lon;timestamp;temperature;humidity
52513;DHT22;38422;53.172;6.974;2023-05-10T00:00:08;15.10;99.90
52513;DHT22;38422;53.172;6.974;2023-05-10T00:02:37;15.10;99.90
52513;DHT22;38422;53.172;6.974;2023-05-10T00:05:04;15.10;99.90
52513;DHT22;38422;53.172;6.974;2023-05-10T00:07:30;15.10;99.90
52513;DHT22;38422;53.172;6.974;2023-05-10T00:09:56;15.10;99.90
52513;DHT22;38422;53.172;6.974;2023-05-10T00:12:22;15.00;99.90
52513;DHT22;38422;53.172;6.974;2023-05-10T00:14:47;15.00;99.90
52513;DHT22;38422;53.172;6.974;2023-05-10T00:17:14;15.00;99.90
52513;DHT22;38422;53.172;6.974;2023-05-10T00:19:40;15.00;99.90
52513;DHT22;38422;53.172;6.974;2023-05-10T00:22:05;15.00;99.90
52513;DHT22;38422;53.172;6.974;2023-05-10T00:24:34;15.00;99.90
52513;DHT22;38422;53.172;6.974;2023-05-10T00:27:00;15.00;99.90
52513;DHT22;38422;53.172;6.974;2023-05-10T00:29:26;15.00;99.90
52513;DHT22;38422;53.172;6.974;2023-05-10T00:31:53;15.00;99.90
52513;DHT22;38422;53.172;6.974;2023-05-10T00:34:18;14.90;99.90
52513;DHT22;38422;53.172;6.974;2023-05-10T00:36:44;14.90;99.90
52513;DHT22;38422;53.172;6.974;2023-05-10T00:39:12;14.80;99.90
52513;DHT22;38422;53.172;6.974;2023-05-10T00:41:38;14.70;99.90
52513;DHT22;38422;53.172;6.974;2023-05-10T00:44:04;14.70;99.90
52513;DHT22;38422;53.172;6.974;2023-05-10T00:46:30;14.60;99.90
52513;DHT22;38422;53.172;6.974;2023-05-10T00:48:56;14.50;99.90
52513;DHT22;38422;53.172;6.974;2023-05-10T00:51:22;14.50;99.90
52513;DHT22;38422;53.172;6.974;2023-05-10T00:53:48;14.50;99.90
52513;DHT22;38422;53.172;6.974;2023-05-10T00:56:15;14.50;99.90
52513;DHT22;38422;53.172;6.974;2023-05-10T00:58:41;14.50;99.90
52513;DHT22;38422;53.172;6.974;2023-05-10T01:01:10;14.40;99.90
52513;DHT22;38422;53.172;6.974;2023-05-10T01:03:37;14.50;99.90
52513;DHT22;38422;53.172;6.974;2023-05-10T01:06:03;14.50;99.90
52513;DHT22;38422;53.172;6.974;2023-05-10T01:08:28;14.40;99.90
52513;DHT22;38422;53.172;6.974;2023-05-10T01:10:55;14.40;99.90
52513;DHT22;38422;53.172;6.974;2023-05-10T01:13:38;14.40;99.90
52513;DHT22;38422;53.172;6.974;2023-05-10T01:16:05;14.40;99.90
52513;DHT22;38422;53.172;6.974;2023-05-10T01:18:36;14.40;99.90
52513;DHT22;38422;53.172;6.974;2023-05-10T01:35:42;14.20;99.90
52513;DHT22;38422;53.172;6.974;2023-05-10T01:38:27;14.30;99.90
52513;DHT22;38422;53.172;6.974;2023-05-10T01:46:37;14.20;99.90
52513;DHT22;38422;53.172;6.974;2023-05-10T01:49:08;14.20;99.90
52513;DHT22;38422;53.172;6.974;2023-05-10T01:51:54;14.20;99.90
52513;DHT22;38422;53.172;6.974;2023-05-10T01:54:23;14.10;99.90
52513;DHT22;38422;53.172;6.974;2023-05-10T01:56:59;14.20;99.90
52513;DHT22;38422;53.172;6.974;2023-05-10T01:59:29;14.10;99.90
52513;DHT22;38422;53.172;6.974;2023-05-10T02:01:57;14.20;99.90
52513;DHT22;38422;53.172;6.974;2023-05-10T02:04:25;14.10;99.90
52513;DHT22;38422;53.172;6.974;2023-05-10T02:06:53;14.20;99.90
52513;DHT22;38422;53.172;6.974;2023-05-10T02:09:20;14.20;99.90
52513;DHT22;38422;53.172;6.974;2023-05-10T02:11:48;14.20;99.90
52513;DHT22;38422;53.172;6.974;2023-05-10T02:14:18;14.20;99.90
52513;DHT22;38422;53.172;6.974;2023-05-10T02:16:44;14.20;99.90
52513;DHT22;38422;53.172;6.974;2023-05-10T02:19:12;14.20;99.90
52513;DHT22;38422;53.172;6.974;2023-05-10T02:21:40;14.20;99.90
52513;DHT22;38422;53.172;6.974;2023-05-10T02:24:07;14.20;99.90
52513;DHT22;38422;53.172;6.974;2023-05-10T02:26:35;14.20;99.90
52513;DHT22;38422;53.172;6.974;2023-05-10T02:29:01;14.20;99.90
52513;DHT22;38422;53.172;6.974;2023-05-10T02:31:30;14.20;99.90
52513;DHT22;38422;53.172;6.974;2023-05-10T02:33:57;14.20;99.90
52513;DHT22;38422;53.172;6.974;2023-05-10T02:36:24;14.20;99.90
52513;DHT22;38422;53.172;6.974;2023-05-10T02:38:53;14.20;99.90
52513;DHT22;38422;53.172;6.974;2023-05-10T02:41:20;14.20;99.90
52513;DHT22;38422;53.172;6.974;2023-05-10T02:43:50;14.20;99.90
52513;DHT22;38422;53.172;6.974;2023-05-10T02:46:18;14.20;99.90
52513;DHT22;38422;53.172;6.974;2023-05-10T02:48:47;14.20;99.90
52513;DHT22;38422;53.172;6.974;2023-05-10T02:51:15;14.20;99.90
52513;DHT22;38422;53.172;6.974;2023-05-10T02:53:44;14.20;99.90
52513;DHT22;38422;53.172;6.974;2023-05-10T02:56:23;14.10;99.90
52513;DHT22;38422;53.172;6.974;2023-05-10T02:58:50;14.10;99.90
52513;DHT22;38422;53.172;6.974;2023-05-10T03:01:16;14.10;99.90
52513;DHT22;38422;53.172;6.974;2023-05-10T03:03:42;14.10;99.90
52513;DHT22;38422;53.172;6.974;2023-05-10T03:06:07;14.10;99.90
52513;DHT22;38422;53.172;6.974;2023-05-10T03:08:33;14.00;99.90
52513;DHT22;38422;53.172;6.974;2023-05-10T03:11:29;14.00;99.90
52513;DHT22;38422;53.172;6.974;2023-05-10T03:14:25;13.90;99.90
52513;DHT22;38422;53.172;6.974;2023-05-10T03:17:06;13.90;99.90
52513;DHT22;38422;53.172;6.974;2023-05-10T03:19:42;13.80;99.90
52513;DHT22;38422;53.172;6.974;2023-05-10T03:22:10;13.80;99.90
52513;DHT22;38422;53.172;6.974;2023-05-10T03:24:36;13.80;99.90
52513;DHT22;38422;53.172;6.974;2023-05-10T03:27:05;13.80;99.90
52513;DHT22;38422;53.172;6.974;2023-05-10T03:29:31;13.80;99.90
52513;DHT22;38422;53.172;6.974;2023-05-10T03:31:58;13.80;99.90
52513;DHT22;38422;53.172;6.974;2023-05-10T03:34:25;13.80;99.90
52513;DHT22;38422;53.172;6.974;2023-05-10T03:36:51;13.80;99.90
52513;DHT22;38422;53.172;6.974;2023-05-10T03:39:16;13.80;99.90
52513;DHT22;38422;53.172;6.974;2023-05-10T03:41:42;13.80;99.90
52513;DHT22;38422;53.172;6.974;2023-05-10T03:44:08;13.80;99.90
52513;DHT22;38422;53.172;6.974;2023-05-10T03:46:33;13.80;99.90
52513;DHT22;38422;53.172;6.974;2023-05-10T03:48:59;13.70;99.90
52513;DHT22;38422;53.172;6.974;2023-05-10T03:51:25;13.70;99.90
52513;DHT22;38422;53.172;6.974;2023-05-10T03:53:54;13.70;99.90
52513;DHT22;38422;53.172;6.974;2023-05-10T03:56:20;13.70;99.90
52513;DHT22;38422;53.172;6.974;2023-05-10T03:58:46;13.70;99.90
52513;DHT22;38422;53.172;6.974;2023-05-10T04:01:12;13.70;99.90
52513;DHT22;38422;53.172;6.974;2023-05-10T04:03:38;13.70;99.90
52513;DHT22;38422;53.172;6.974;2023-05-10T04:06:04;13.60;99.90
52513;DHT22;38422;53.172;6.974;2023-05-10T04:08:30;13.60;99.90
52513;DHT22;38422;53.172;6.974;2023-05-10T04:11:05;13.60;99.90
52513;DHT22;38422;53.172;6.974;2023-05-10T04:13:32;13.70;99.90
52513;DHT22;38422;53.172;6.974;2023-05-10T04:15:57;13.60;99.90
52513;DHT22;38422;53.172;6.974;2023-05-10T04:18:23;13.60;99.90
52513;DHT22;38422;53.172;6.974;2023-05-10T04:20:49;13.60;99.90
52513;DHT22;38422;53.172;6.974;2023-05-10T04:23:14;13.60;99.90
52513;DHT22;38422;53.172;6.974;2023-05-10T04:25:42;13.50;99.90
52513;DHT22;38422;53.172;6.974;2023-05-10T04:28:08;13.40;99.90
52513;DHT22;38422;53.172;6.974;2023-05-10T04:30:34;13.40;99.90
52513;DHT22;38422;53.172;6.974;2023-05-10T04:33:00;13.50;99.90
52513;DHT22;38422;53.172;6.974;2023-05-10T04:35:27;13.50;99.90
52513;DHT22;38422;53.172;6.974;2023-05-10T04:37:54;13.50;99.90
52513;DHT22;38422;53.172;6.974;2023-05-10T04:40:20;13.50;99.90
52513;DHT22;38422;53.172;6.974;2023-05-10T04:42:46;13.40;99.90
52513;DHT22;38422;53.172;6.974;2023-05-10T04:45:12;13.40;99.90
52513;DHT22;38422;53.172;6.974;2023-05-10T04:47:40;13.50;99.90
52513;DHT22;38422;53.172;6.974;2023-05-10T04:50:06;13.50;99.90
52513;DHT22;38422;53.172;6.974;2023-05-10T04:52:32;13.50;99.90
52513;DHT22;38422;53.172;6.974;2023-05-10T04:54:58;13.50;99.90
52513;DHT22;38422;53.172;6.974;2023-05-10T04:57:24;13.50;99.90
52513;DHT22;38422;53.172;6.974;2023-05-10T04:59:49;13.50;99.90
52513;DHT22;38422;53.172;6.974;2023-05-10T05:02:18;13.50;99.90
52513;DHT22;38422;53.172;6.974;2023-05-10T05:04:44;13.50;99.90
52513;DHT22;38422;53.172;6.974;2023-05-10T05:07:10;13.50;99.90
52513;DHT22;38422;53.172;6.974;2023-05-10T05:09:38;13.50;99.90
52513;DHT22;38422;53.172;6.974;2023-05-10T05:12:04;13.50;99.90
52513;DHT22;38422;53.172;6.974;2023-05-10T05:14:30;13.40;99.90
52513;DHT22;38422;53.172;6.974;2023-05-10T05:16:55;13.50;99.90
52513;DHT22;38422;53.172;6.974;2023-05-10T05:19:21;13.50;99.90
52513;DHT22;38422;53.172;6.974;2023-05-10T05:21:48;13.50;99.90
52513;DHT22;38422;53.172;6.974;2023-05-10T05:24:13;13.50;99.90
52513;DHT22;38422;53.172;6.974;2023-05-10T05:26:39;13.50;99.90
52513;DHT22;38422;53.172;6.974;2023-05-10T05:29:05;13.50;99.90
52513;DHT22;38422;53.172;6.974;2023-05-10T05:31:30;13.50;99.90
52513;DHT22;38422;53.172;6.974;2023-05-10T05:33:56;13.50;99.90
52513;DHT22;38422;53.172;6.974;2023-05-10T05:36:22;13.50;99.90
52513;DHT22;38422;53.172;6.974;2023-05-10T05:38:47;13.50;99.90
52513;DHT22;38422;53.172;6.974;2023-05-10T05:41:13;13.50;99.90
52513;DHT22;38422;53.172;6.974;2023-05-10T05:43:39;13.50;99.90
52513;DHT22;38422;53.172;6.974;2023-05-10T05:46:05;13.50;99.90
52513;DHT22;38422;53.172;6.974;2023-05-10T05:48:31;13.50;99.90
52513;DHT22;38422;53.172;6.974;2023-05-10T05:50:57;13.50;99.90
52513;DHT22;38422;53.172;6.974;2023-05-10T05:53:25;13.50;99.90
52513;DHT22;38422;53.172;6.974;2023-05-10T05:55:55;13.50;99.90
52513;DHT22;38422;53.172;6.974;2023-05-10T05:58:22;13.60;99.90
52513;DHT22;38422;53.172;6.974;2023-05-10T06:00:48;13.50;99.90
52513;DHT22;38422;53.172;6.974;2023-05-10T06:03:14;13.50;99.90
52513;DHT22;38422;53.172;6.974;2023-05-10T06:05:40;13.50;99.90
52513;DHT22;38422;53.172;6.974;2023-05-10T06:08:05;13.50;99.90
52513;DHT22;38422;53.172;6.974;2023-05-10T06:10:31;13.50;99.90
52513;DHT22;38422;53.172;6.974;2023-05-10T06:12:57;13.50;99.90
52513;DHT22;38422;53.172;6.974;2023-05-10T06:15:22;13.60;99.90
52513;DHT22;38422;53.172;6.974;2023-05-10T06:17:48;13.60;99.90
52513;DHT22;38422;53.172;6.974;2023-05-10T06:20:15;13.60;99.90
52513;DHT22;38422;53.172;6.974;2023-05-10T06:22:41;13.60;99.90
52513;DHT22;38422;53.172;6.974;2023-05-10T06:25:08;13.60;99.90
52513;DHT22;38422;53.172;6.974;2023-05-10T06:27:34;13.70;99.90
52513;DHT22;38422;53.172;6.974;2023-05-10T06:30:00;13.70;99.90
52513;DHT22;38422;53.172;6.974;2023-05-10T06:32:26;13.60;99.90
52513;DHT22;38422;53.172;6.974;2023-05-10T06:34:51;13.50;99.90
52513;DHT22;38422;53.172;6.974;2023-05-10T06:37:17;13.50;99.90
52513;DHT22;38422;53.172;6.974;2023-05-10T06:39:43;13.60;99.90
52513;DHT22;38422;53.172;6.974;2023-05-10T06:42:09;13.60;99.90
52513;DHT22;38422;53.172;6.974;2023-05-10T06:44:35;13.50;99.90
52513;DHT22;38422;53.172;6.974;2023-05-10T06:47:00;13.60;99.90
52513;DHT22;38422;53.172;6.974;2023-05-10T06:49:26;13.60;99.90
52513;DHT22;38422;53.172;6.974;2023-05-10T06:51:52;13.60;99.90
52513;DHT22;38422;53.172;6.974;2023-05-10T06:54:17;13.60;99.90
52513;DHT22;38422;53.172;6.974;2023-05-10T06:56:43;13.60;99.90
52513;DHT22;38422;53.172;6.974;2023-05-10T06:59:09;13.60;99.90
52513;DHT22;38422;53.172;6.974;2023-05-10T07:01:35;13.60;99.90
52513;DHT22;38422;53.172;6.974;2023-05-10T07:04:01;13.70;99.90
52513;DHT22;38422;53.172;6.974;2023-05-10T07:06:27;13.70;99.90
52513;DHT22;38422;53.172;6.974;2023-05-10T07:08:52;13.70;99.90
52513;DHT22;38422;53.172;6.974;2023-05-10T07:11:18;13.70;99.90
52513;DHT22;38422;53.172;6.974;2023-05-10T07:13:44;13.70;99.90
52513;DHT22;38422;53.172;6.974;2023-05-10T07:16:11;13.70;99.90
52513;DHT22;38422;53.172;6.974;2023-05-10T07:18:37;13.80;99.90
52513;DHT22;38422;53.172;6.974;2023-05-10T07:25:21;13.90;99.90
52513;DHT22;38422;53.172;6.974;2023-05-10T07:27:55;13.90;99.90
52513;DHT22;38422;53.172;6.974;2023-05-10T07:34:02;13.90;99.90
52513;DHT22;38422;53.172;6.974;2023-05-10T07:36:27;13.90;99.90
52513;DHT22;38422;53.172;6.974;2023-05-10T07:38:53;13.80;99.90
52513;DHT22;38422;53.172;6.974;2023-05-10T07:41:19;13.90;99.90
52513;DHT22;38422;53.172;6.974;2023-05-10T07:43:46;13.90;99.90
52513;DHT22;38422;53.172;6.974;2023-05-10T07:46:11;13.90;99.90
52513;DHT22;38422;53.172;6.974;2023-05-10T07:48:37;13.80;99.90
52513;DHT22;38422;53.172;6.974;2023-05-10T07:51:03;13.80;99.90
52513;DHT22;38422;53.172;6.974;2023-05-10T07:53:29;13.80;99.90
52513;DHT22;38422;53.172;6.974;2023-05-10T07:56:30;13.70;99.90
52513;DHT22;38422;53.172;6.974;2023-05-10T08:02:57;13.70;99.90
52513;DHT22;38422;53.172;6.974;2023-05-10T08:09:04;13.70;99.90
52513;DHT22;38422;53.172;6.974;2023-05-10T08:15:31;13.70;99.90
52513;DHT22;38422;53.172;6.974;2023-05-10T08:17:57;13.70;99.90
52513;DHT22;38422;53.172;6.974;2023-05-10T08:20:22;13.70;99.90
52513;DHT22;38422;53.172;6.974;2023-05-10T08:22:48;13.70;99.90
52513;DHT22;38422;53.172;6.974;2023-05-10T08:25:15;13.80;99.90
52513;DHT22;38422;53.172;6.974;2023-05-10T08:28:15;13.80;99.90
52513;DHT22;38422;53.172;6.974;2023-05-10T08:34:26;13.80;99.90
52513;DHT22;38422;53.172;6.974;2023-05-10T08:41:06;13.90;99.90
52513;DHT22;38422;53.172;6.974;2023-05-10T08:43:32;13.80;99.90
52513;DHT22;38422;53.172;6.974;2023-05-10T08:46:00;13.90;99.90
52513;DHT22;38422;53.172;6.974;2023-05-10T08:48:39;13.80;99.90
52513;DHT22;38422;53.172;6.974;2023-05-10T08:55:05;13.80;99.90
52513;DHT22;38422;53.172;6.974;2023-05-10T09:01:12;13.80;99.90
52513;DHT22;38422;53.172;6.974;2023-05-10T09:03:39;13.80;99.90
52513;DHT22;38422;53.172;6.974;2023-05-10T09:06:05;13.80;99.90
52513;DHT22;38422;53.172;6.974;2023-05-10T09:08:32;13.90;99.90
52513;DHT22;38422;53.172;6.974;2023-05-10T09:11:00;13.80;99.90
52513;DHT22;38422;53.172;6.974;2023-05-10T09:13:26;13.90;99.90
52513;DHT22;38422;53.172;6.974;2023-05-10T09:15:53;13.90;99.90
52513;DHT22;38422;53.172;6.974;2023-05-10T09:18:19;13.90;99.90
52513;DHT22;38422;53.172;6.974;2023-05-10T09:20:44;13.90;99.90
52513;DHT22;38422;53.172;6.974;2023-05-10T09:23:10;13.90;99.90
52513;DHT22;38422;53.172;6.974;2023-05-10T09:25:36;14.00;99.90
52513;DHT22;38422;53.172;6.974;2023-05-10T09:28:06;14.00;99.90
52513;DHT22;38422;53.172;6.974;2023-05-10T09:30:33;14.10;99.90
52513;DHT22;38422;53.172;6.974;2023-05-10T09:32:59;14.10;99.90
52513;DHT22;38422;53.172;6.974;2023-05-10T09:35:29;14.20;99.90
52513;DHT22;38422;53.172;6.974;2023-05-10T09:37:56;14.20;99.90
52513;DHT22;38422;53.172;6.974;2023-05-10T09:40:24;14.30;99.90
52513;DHT22;38422;53.172;6.974;2023-05-10T09:43:08;14.30;99.90
52513;DHT22;38422;53.172;6.974;2023-05-10T09:45:36;14.30;99.90
52513;DHT22;38422;53.172;6.974;2023-05-10T09:48:03;14.30;99.90
52513;DHT22;38422;53.172;6.974;2023-05-10T09:50:29;14.30;99.90
52513;DHT22;38422;53.172;6.974;2023-05-10T09:52:57;14.30;99.90
52513;DHT22;38422;53.172;6.974;2023-05-10T09:56:03;14.30;99.90
52513;DHT22;38422;53.172;6.974;2023-05-10T10:09:06;14.30;99.90
52513;DHT22;38422;53.172;6.974;2023-05-10T10:11:33;14.30;99.90
52513;DHT22;38422;53.172;6.974;2023-05-10T10:13:59;14.40;99.90
52513;DHT22;38422;53.172;6.974;2023-05-10T10:16:25;14.40;99.90
52513;DHT22;38422;53.172;6.974;2023-05-10T10:18:52;14.50;99.90
52513;DHT22;38422;53.172;6.974;2023-05-10T10:21:18;14.50;99.90
52513;DHT22;38422;53.172;6.974;2023-05-10T10:23:44;14.60;99.90
52513;DHT22;38422;53.172;6.974;2023-05-10T10:26:11;14.70;99.90
52513;DHT22;38422;53.172;6.974;2023-05-10T10:28:49;14.70;99.90
52513;DHT22;38422;53.172;6.974;2023-05-10T10:34:55;14.90;99.90
52513;DHT22;38422;53.172;6.974;2023-05-10T10:41:08;15.10;99.90
52513;DHT22;38422;53.172;6.974;2023-05-10T10:43:35;15.00;99.90
52513;DHT22;38422;53.172;6.974;2023-05-10T10:46:17;15.00;99.90
52513;DHT22;38422;53.172;6.974;2023-05-10T10:58:49;15.10;99.90
52513;DHT22;38422;53.172;6.974;2023-05-10T11:01:19;15.20;99.90
52513;DHT22;38422;53.172;6.974;2023-05-10T11:04:17;15.20;99.90
52513;DHT22;38422;53.172;6.974;2023-05-10T11:06:44;15.30;99.90
52513;DHT22;38422;53.172;6.974;2023-05-10T11:09:11;15.30;99.90
52513;DHT22;38422;53.172;6.974;2023-05-10T11:11:50;15.40;99.90
52513;DHT22;38422;53.172;6.974;2023-05-10T11:14:20;15.40;99.90
52513;DHT22;38422;53.172;6.974;2023-05-10T11:16:46;15.40;99.90
52513;DHT22;38422;53.172;6.974;2023-05-10T11:19:14;15.40;99.90
52513;DHT22;38422;53.172;6.974;2023-05-10T11:21:46;15.50;99.90
52513;DHT22;38422;53.172;6.974;2023-05-10T11:24:14;15.60;99.90
52513;DHT22;38422;53.172;6.974;2023-05-10T11:26:40;15.80;99.90
52513;DHT22;38422;53.172;6.974;2023-05-10T11:29:06;15.90;99.90
52513;DHT22;38422;53.172;6.974;2023-05-10T11:31:32;16.10;99.90
52513;DHT22;38422;53.172;6.974;2023-05-10T11:33:59;16.20;99.90
52513;DHT22;38422;53.172;6.974;2023-05-10T11:36:28;16.20;99.90
52513;DHT22;38422;53.172;6.974;2023-05-10T11:38:54;16.20;99.90
52513;DHT22;38422;53.172;6.974;2023-05-10T11:41:21;16.20;99.90
52513;DHT22;38422;53.172;6.974;2023-05-10T11:43:49;16.30;99.90
52513;DHT22;38422;53.172;6.974;2023-05-10T11:46:15;16.20;99.90
52513;DHT22;38422;53.172;6.974;2023-05-10T11:48:43;16.20;99.90
52513;DHT22;38422;53.172;6.974;2023-05-10T11:51:10;16.20;99.90
52513;DHT22;38422;53.172;6.974;2023-05-10T11:53:36;16.20;99.90
52513;DHT22;38422;53.172;6.974;2023-05-10T11:56:05;16.10;99.90
52513;DHT22;38422;53.172;6.974;2023-05-10T11:58:32;16.10;99.90
52513;DHT22;38422;53.172;6.974;2023-05-10T12:00:59;16.10;99.90
52513;DHT22;38422;53.172;6.974;2023-05-10T12:03:25;16.10;99.90
52513;DHT22;38422;53.172;6.974;2023-05-10T12:05:52;16.00;99.90
52513;DHT22;38422;53.172;6.974;2023-05-10T12:08:21;16.00;99.90
52513;DHT22;38422;53.172;6.974;2023-05-10T12:10:47;16.00;99.90
52513;DHT22;38422;53.172;6.974;2023-05-10T12:13:14;15.90;99.90
52513;DHT22;38422;53.172;6.974;2023-05-10T12:15:41;15.90;99.90
52513;DHT22;38422;53.172;6.974;2023-05-10T12:18:14;15.90;99.90
52513;DHT22;38422;53.172;6.974;2023-05-10T12:20:40;15.90;99.90
52513;DHT22;38422;53.172;6.974;2023-05-10T12:23:08;15.90;99.90
52513;DHT22;38422;53.172;6.974;2023-05-10T12:25:37;16.00;99.90
52513;DHT22;38422;53.172;6.974;2023-05-10T12:28:07;16.10;99.90
52513;DHT22;38422;53.172;6.974;2023-05-10T12:30:35;16.20;99.90
52513;DHT22;38422;53.172;6.974;2023-05-10T12:33:02;16.20;99.90
52513;DHT22;38422;53.172;6.974;2023-05-10T12:35:33;16.20;99.90
52513;DHT22;38422;53.172;6.974;2023-05-10T12:37:59;16.10;99.90
52513;DHT22;38422;53.172;6.974;2023-05-10T12:40:25;16.10;99.90
52513;DHT22;38422;53.172;6.974;2023-05-10T12:42:50;16.10;99.90
52513;DHT22;38422;53.172;6.974;2023-05-10T12:45:18;16.10;99.90
52513;DHT22;38422;53.172;6.974;2023-05-10T12:47:43;16.10;99.90
52513;DHT22;38422;53.172;6.974;2023-05-10T12:50:09;16.20;99.90
52513;DHT22;38422;53.172;6.974;2023-05-10T12:52:35;16.30;99.90
52513;DHT22;38422;53.172;6.974;2023-05-10T12:55:01;16.30;99.90
52513;DHT22;38422;53.172;6.974;2023-05-10T12:57:28;16.30;99.90
52513;DHT22;38422;53.172;6.974;2023-05-10T12:59:54;16.30;99.90
52513;DHT22;38422;53.172;6.974;2023-05-10T13:02:20;16.30;99.90
52513;DHT22;38422;53.172;6.974;2023-05-10T13:04:48;16.30;99.90
52513;DHT22;38422;53.172;6.974;2023-05-10T13:07:14;16.30;99.90
52513;DHT22;38422;53.172;6.974;2023-05-10T13:09:40;16.20;99.90
52513;DHT22;38422;53.172;6.974;2023-05-10T13:12:06;16.10;99.90
52513;DHT22;38422;53.172;6.974;2023-05-10T13:14:32;16.00;99.90
52513;DHT22;38422;53.172;6.974;2023-05-10T13:16:57;16.00;99.90
52513;DHT22;38422;53.172;6.974;2023-05-10T13:19:24;16.00;99.90
52513;DHT22;38422;53.172;6.974;2023-05-10T13:21:49;16.10;99.90
52513;DHT22;38422;53.172;6.974;2023-05-10T13:24:15;16.10;99.90
52513;DHT22;38422;53.172;6.974;2023-05-10T13:26:43;16.20;99.90
52513;DHT22;38422;53.172;6.974;2023-05-10T13:29:08;16.40;99.90
52513;DHT22;38422;53.172;6.974;2023-05-10T13:31:34;16.50;99.90
52513;DHT22;38422;53.172;6.974;2023-05-10T13:34:01;16.60;99.90
52513;DHT22;38422;53.172;6.974;2023-05-10T13:36:28;16.60;99.90
52513;DHT22;38422;53.172;6.974;2023-05-10T13:38:53;16.70;99.90
52513;DHT22;38422;53.172;6.974;2023-05-10T13:41:19;16.70;99.90
52513;DHT22;38422;53.172;6.974;2023-05-10T13:43:45;16.60;99.90
52513;DHT22;38422;53.172;6.974;2023-05-10T13:46:10;16.60;99.90
52513;DHT22;38422;53.172;6.974;2023-05-10T13:48:36;16.60;99.90
52513;DHT22;38422;53.172;6.974;2023-05-10T13:51:04;16.60;99.90
52513;DHT22;38422;53.172;6.974;2023-05-10T13:53:30;16.60;99.90
52513;DHT22;38422;53.172;6.974;2023-05-10T13:55:56;16.70;99.90
52513;DHT22;38422;53.172;6.974;2023-05-10T13:58:22;16.80;99.90
52513;DHT22;38422;53.172;6.974;2023-05-10T14:00:49;16.80;99.90
52513;DHT22;38422;53.172;6.974;2023-05-10T14:03:16;16.90;99.90
52513;DHT22;38422;53.172;6.974;2023-05-10T14:05:42;17.00;99.90
52513;DHT22;38422;53.172;6.974;2023-05-10T14:08:09;17.10;99.90
52513;DHT22;38422;53.172;6.974;2023-05-10T14:10:35;17.20;99.90
52513;DHT22;38422;53.172;6.974;2023-05-10T14:13:01;17.30;99.90
52513;DHT22;38422;53.172;6.974;2023-05-10T14:15:28;17.40;99.90
52513;DHT22;38422;53.172;6.974;2023-05-10T14:17:54;17.60;99.90
52513;DHT22;38422;53.172;6.974;2023-05-10T14:20:19;17.70;99.90
52513;DHT22;38422;53.172;6.974;2023-05-10T14:22:45;17.80;99.90
52513;DHT22;38422;53.172;6.974;2023-05-10T14:25:11;17.90;99.90
52513;DHT22;38422;53.172;6.974;2023-05-10T14:27:38;17.90;99.90
52513;DHT22;38422;53.172;6.974;2023-05-10T14:30:04;18.00;99.90
52513;DHT22;38422;53.172;6.974;2023-05-10T14:32:29;17.90;99.90
52513;DHT22;38422;53.172;6.974;2023-05-10T14:34:57;17.90;99.90
52513;DHT22;38422;53.172;6.974;2023-05-10T14:37:23;17.80;99.90
52513;DHT22;38422;53.172;6.974;2023-05-10T14:39:48;17.80;99.90
52513;DHT22;38422;53.172;6.974;2023-05-10T14:42:14;17.80;99.90
52513;DHT22;38422;53.172;6.974;2023-05-10T14:44:40;17.80;99.90
52513;DHT22;38422;53.172;6.974;2023-05-10T14:47:05;17.70;99.90
52513;DHT22;38422;53.172;6.974;2023-05-10T14:49:31;17.70;99.90
52513;DHT22;38422;53.172;6.974;2023-05-10T14:51:57;17.70;99.90
52513;DHT22;38422;53.172;6.974;2023-05-10T14:54:22;17.60;99.90
52513;DHT22;38422;53.172;6.974;2023-05-10T14:56:48;17.70;99.90
52513;DHT22;38422;53.172;6.974;2023-05-10T14:59:15;17.60;99.90
52513;DHT22;38422;53.172;6.974;2023-05-10T15:01:41;17.70;99.90
52513;DHT22;38422;53.172;6.974;2023-05-10T15:04:07;17.60;99.90
52513;DHT22;38422;53.172;6.974;2023-05-10T15:06:34;17.60;99.90
52513;DHT22;38422;53.172;6.974;2023-05-10T15:09:01;17.50;99.90
52513;DHT22;38422;53.172;6.974;2023-05-10T15:11:28;17.50;99.90
52513;DHT22;38422;53.172;6.974;2023-05-10T15:13:54;17.50;99.90
52513;DHT22;38422;53.172;6.974;2023-05-10T15:16:20;17.40;99.90
52513;DHT22;38422;53.172;6.974;2023-05-10T15:18:45;17.50;99.90
52513;DHT22;38422;53.172;6.974;2023-05-10T15:21:11;17.40;99.90
52513;DHT22;38422;53.172;6.974;2023-05-10T15:23:38;17.40;99.90
52513;DHT22;38422;53.172;6.974;2023-05-10T15:26:03;17.50;99.90
52513;DHT22;38422;53.172;6.974;2023-05-10T15:28:29;17.50;99.90
52513;DHT22;38422;53.172;6.974;2023-05-10T15:30:55;17.50;99.90
52513;DHT22;38422;53.172;6.974;2023-05-10T15:33:22;17.50;99.90
52513;DHT22;38422;53.172;6.974;2023-05-10T15:35:47;17.50;99.90
52513;DHT22;38422;53.172;6.974;2023-05-10T15:38:13;17.60;99.90
52513;DHT22;38422;53.172;6.974;2023-05-10T15:40:39;17.60;99.90
52513;DHT22;38422;53.172;6.974;2023-05-10T15:43:05;17.60;99.90
52513;DHT22;38422;53.172;6.974;2023-05-10T15:45:31;17.70;99.90
52513;DHT22;38422;53.172;6.974;2023-05-10T15:47:57;17.70;99.90
52513;DHT22;38422;53.172;6.974;2023-05-10T15:50:24;17.70;99.90
52513;DHT22;38422;53.172;6.974;2023-05-10T15:52:50;17.70;99.90
52513;DHT22;38422;53.172;6.974;2023-05-10T15:55:16;17.70;99.90
52513;DHT22;38422;53.172;6.974;2023-05-10T15:57:43;17.70;99.90
52513;DHT22;38422;53.172;6.974;2023-05-10T16:00:10;17.70;99.90
52513;DHT22;38422;53.172;6.974;2023-05-10T16:02:36;17.70;99.90
52513;DHT22;38422;53.172;6.974;2023-05-10T16:05:02;17.60;99.90
52513;DHT22;38422;53.172;6.974;2023-05-10T16:07:28;17.60;99.90
52513;DHT22;38422;53.172;6.974;2023-05-10T16:09:54;17.60;99.90
52513;DHT22;38422;53.172;6.974;2023-05-10T16:12:19;17.60;99.90
52513;DHT22;38422;53.172;6.974;2023-05-10T16:14:47;17.60;99.90
52513;DHT22;38422;53.172;6.974;2023-05-10T16:17:13;17.60;99.90
52513;DHT22;38422;53.172;6.974;2023-05-10T16:19:39;17.60;99.90
52513;DHT22;38422;53.172;6.974;2023-05-10T16:22:05;17.50;99.90
52513;DHT22;38422;53.172;6.974;2023-05-10T16:24:31;17.50;99.90
52513;DHT22;38422;53.172;6.974;2023-05-10T16:26:57;17.60;99.90
52513;DHT22;38422;53.172;6.974;2023-05-10T16:29:22;17.60;99.90
52513;DHT22;38422;53.172;6.974;2023-05-10T16:31:48;17.60;99.90
52513;DHT22;38422;53.172;6.974;2023-05-10T16:34:14;17.50;99.90
52513;DHT22;38422;53.172;6.974;2023-05-10T16:36:40;17.50;99.90
52513;DHT22;38422;53.172;6.974;2023-05-10T16:39:06;17.50;99.90
52513;DHT22;38422;53.172;6.974;2023-05-10T16:41:33;17.50;99.90
52513;DHT22;38422;53.172;6.974;2023-05-10T16:43:59;17.40;99.90
52513;DHT22;38422;53.172;6.974;2023-05-10T16:46:25;17.40;99.90
52513;DHT22;38422;53.172;6.974;2023-05-10T16:48:51;17.40;99.90
52513;DHT22;38422;53.172;6.974;2023-05-10T16:51:17;17.40;99.90
52513;DHT22;38422;53.172;6.974;2023-05-10T16:53:43;17.30;99.90